createdAt,value
2023-05-24T00:02:30.716Z,100396.19
2023-05-24T00:05:33.844Z,100400.97
2023-05-24T00:08:36.555Z,100409.03
2023-05-24T00:11:39.251Z,100419.78
2023-05-24T00:14:42.088Z,100423.25
2023-05-24T00:17:44.882Z,100427.81
2023-05-24T00:20:47.994Z,100428.03
2023-05-24T00:23:52.146Z,100427.13
2023-05-24T00:26:54.907Z,100423.59
2023-05-24T00:29:57.819Z,100427.78
2023-05-24T00:33:00.653Z,100423.19
2023-05-24T00:36:03.535Z,100426.34
2023-05-24T00:39:06.684Z,100421.16
2023-05-24T00:42:09.872Z,100413.56
2023-05-24T00:45:13.010Z,100407.31
2023-05-24T00:48:16.075Z,100403.25
2023-05-24T00:51:19.165Z,100402.88
2023-05-24T00:54:22.532Z,100398.22
2023-05-24T00:57:27.556Z,100394.38
2023-05-24T01:00:30.737Z,100395.66
2023-05-24T01:03:34.102Z,100398.31
2023-05-24T01:06:52.205Z,100402.84
2023-05-24T01:09:54.880Z,100398.75
2023-05-24T01:13:20.956Z,100396.13
2023-05-24T01:16:28.820Z,100394.22
2023-05-24T01:19:49.116Z,100384.06
2023-05-24T01:23:20.049Z,100394.69
2023-05-24T01:26:40.351Z,100397.38
2023-05-24T01:29:43.178Z,100401.47
2023-05-24T01:32:46.434Z,100404.97
2023-05-24T01:35:49.448Z,100400.72
2023-05-24T01:38:52.843Z,100390.00
2023-05-24T01:42:17.443Z,100389.56
2023-05-24T01:45:35.884Z,100394.25
2023-05-24T01:49:09.500Z,100389.94
2023-05-24T01:52:15.373Z,100388.59
2023-05-24T01:55:18.866Z,100388.31
2023-05-24T01:58:23.758Z,100391.28
2023-05-24T02:01:27.683Z,100391.50
2023-05-24T02:04:30.991Z,100385.81
2023-05-24T02:07:33.844Z,100392.00
2023-05-24T02:10:39.824Z,100387.09
2023-05-24T02:13:42.626Z,100389.72
2023-05-24T02:16:46.977Z,100392.69
2023-05-24T02:19:49.963Z,100395.44
2023-05-24T02:22:52.915Z,100403.47
2023-05-24T02:25:56.750Z,100407.34
2023-05-24T02:28:59.633Z,100401.72
2023-05-24T02:32:02.523Z,100402.78
2023-05-24T02:35:06.196Z,100401.19
2023-05-24T02:38:09.923Z,100400.09
2023-05-24T02:41:17.984Z,100397.97
2023-05-24T02:44:20.754Z,100401.78
2023-05-24T02:47:23.614Z,100404.16
2023-05-24T02:50:26.431Z,100403.34
2023-05-24T02:53:30.197Z,100410.03
2023-05-24T02:56:33.311Z,100412.19
2023-05-24T02:59:36.617Z,100416.78
2023-05-24T03:02:41.354Z,100420.59
2023-05-24T03:05:44.349Z,100420.53
2023-05-24T03:08:49.502Z,100411.69
2023-05-24T03:11:54.654Z,100423.81
2023-05-24T03:14:57.863Z,100423.81
2023-05-24T03:18:01.083Z,100431.59
2023-05-24T03:21:04.186Z,100426.53
2023-05-24T03:24:07.267Z,100433.84
2023-05-24T03:27:10.907Z,100428.72
2023-05-24T03:30:13.908Z,100429.81
2023-05-24T03:33:27.613Z,100437.34
2023-05-24T03:36:31.220Z,100433.66
2023-05-24T03:39:34.046Z,100439.81
2023-05-24T03:42:51.050Z,100442.00
2023-05-24T03:45:55.718Z,100439.16
2023-05-24T03:48:58.566Z,100439.44
2023-05-24T03:52:01.572Z,100443.78
2023-05-24T03:55:04.727Z,100447.22
2023-05-24T03:58:07.538Z,100453.69
2023-05-24T04:01:22.030Z,100450.53
2023-05-24T04:04:32.774Z,100449.78
2023-05-24T04:07:37.110Z,100458.22
2023-05-24T04:10:40.075Z,100459.56
2023-05-24T04:13:46.005Z,100462.28
2023-05-24T04:16:48.951Z,100454.56
2023-05-24T04:19:52.111Z,100461.03
2023-05-24T04:22:56.519Z,100469.84
2023-05-24T04:25:59.651Z,100473.44
2023-05-24T04:29:02.495Z,100483.94
2023-05-24T04:32:06.422Z,100477.22
2023-05-24T04:35:09.765Z,100478.38
2023-05-24T04:38:12.944Z,100487.25
2023-05-24T04:41:15.827Z,100485.97
2023-05-24T04:44:18.897Z,100481.19
2023-05-24T04:47:21.729Z,100481.69
2023-05-24T04:50:24.565Z,100479.50
2023-05-24T04:53:27.477Z,100476.84
2023-05-24T04:56:30.332Z,100480.66
2023-05-24T04:59:33.162Z,100477.19
2023-05-24T05:02:36.192Z,100489.59
2023-05-24T05:05:39.078Z,100496.25
2023-05-24T05:08:41.945Z,100497.88
2023-05-24T05:11:46.887Z,100498.16
2023-05-24T05:14:50.808Z,100495.78
2023-05-24T05:17:53.605Z,100499.91
2023-05-24T05:20:56.399Z,100505.50
2023-05-24T05:24:00.259Z,100510.06
2023-05-24T05:27:03.091Z,100513.56
2023-05-24T05:30:06.609Z,100513.91
2023-05-24T05:33:12.144Z,100527.13
2023-05-24T05:36:15.605Z,100527.66
2023-05-24T05:39:18.399Z,100523.41
2023-05-24T05:42:21.236Z,100533.16
2023-05-24T05:45:24.755Z,100528.03
2023-05-24T05:48:27.669Z,100531.00
2023-05-24T05:51:30.722Z,100542.31
2023-05-24T05:54:36.531Z,100536.69
2023-05-24T05:57:39.362Z,100548.25
2023-05-24T06:00:42.626Z,100552.59
2023-05-24T06:03:45.962Z,100553.13
2023-05-24T06:06:50.073Z,100553.66
2023-05-24T06:10:07.526Z,100554.97
2023-05-24T06:13:40.417Z,100559.84
2023-05-24T06:16:49.389Z,100555.78
2023-05-24T06:19:55.450Z,100547.66
2023-05-24T06:23:01.641Z,100555.47
2023-05-24T06:26:05.120Z,100559.75
2023-05-24T06:29:08.588Z,100561.13
2023-05-24T06:32:11.963Z,100564.03
2023-05-24T06:35:14.993Z,100568.34
2023-05-24T06:38:19.644Z,100568.50
2023-05-24T06:41:23.069Z,100562.91
2023-05-24T06:44:33.823Z,100571.22
2023-05-24T06:47:37.397Z,100578.28
2023-05-24T06:50:42.572Z,100571.28
2023-05-24T06:53:45.842Z,100583.06
2023-05-24T06:56:48.754Z,100581.75
2023-05-24T06:59:52.621Z,100588.19
2023-05-24T07:03:01.609Z,100587.13
2023-05-24T07:06:05.363Z,100584.47
2023-05-24T07:09:10.610Z,100591.16
2023-05-24T07:12:13.740Z,100590.22
2023-05-24T07:15:19.157Z,100590.88
2023-05-24T07:18:22.073Z,100589.84
2023-05-24T07:21:24.931Z,100599.94
2023-05-24T07:24:28.017Z,100596.66
2023-05-24T07:27:30.892Z,100609.03
2023-05-24T07:30:34.329Z,100604.63
2023-05-24T07:33:40.686Z,100605.38
2023-05-24T07:36:43.549Z,100598.19
2023-05-24T07:39:46.500Z,100600.19
2023-05-24T07:42:49.389Z,100608.38
2023-05-24T07:45:52.241Z,100606.81
2023-05-24T07:48:57.648Z,100609.38
2023-05-24T07:52:00.673Z,100613.84
2023-05-24T07:55:04.188Z,100615.09
2023-05-24T07:58:07.114Z,100614.28
2023-05-24T08:01:11.315Z,100613.75
2023-05-24T08:04:14.450Z,100623.41
2023-05-24T08:07:18.211Z,100625.22
2023-05-24T08:10:22.222Z,100624.09
2023-05-24T08:13:26.884Z,100618.91
2023-05-24T08:16:30.045Z,100622.91
2023-05-24T08:19:36.118Z,100626.16
2023-05-24T08:22:39.313Z,100621.28
2023-05-24T08:25:42.832Z,100631.06
2023-05-24T08:28:46.149Z,100627.34
2023-05-24T08:31:49.219Z,100628.09
2023-05-24T08:34:57.949Z,100630.97
2023-05-24T08:38:07.102Z,100642.47
2023-05-24T08:41:12.007Z,100637.63
2023-05-24T08:44:17.734Z,100646.91
2023-05-24T08:47:22.433Z,100638.41
2023-05-24T08:50:26.392Z,100638.31
2023-05-24T08:54:14.184Z,100643.13
2023-05-24T08:57:21.684Z,100645.97
2023-05-24T09:00:25.204Z,100646.00
2023-05-24T09:03:28.501Z,100655.16
2023-05-24T09:06:32.843Z,100656.03
2023-05-24T09:09:37.991Z,100651.31
2023-05-24T09:12:49.140Z,100652.56
2023-05-24T09:15:52.498Z,100658.88
2023-05-24T09:18:55.570Z,100662.56
2023-05-24T09:21:59.912Z,100651.66
2023-05-24T09:25:06.737Z,100657.66
2023-05-24T09:28:09.728Z,100657.13
2023-05-24T09:31:14.008Z,100657.28
2023-05-24T09:34:17.051Z,100659.59
2023-05-24T09:37:27.604Z,100663.53
2023-05-24T09:40:31.888Z,100669.34
2023-05-24T09:43:46.854Z,100663.75
2023-05-24T09:46:49.680Z,100666.66
2023-05-24T09:49:58.357Z,100660.59
2023-05-24T09:53:35.426Z,100668.94
2023-05-24T09:56:43.347Z,100666.97
2023-05-24T09:59:47.196Z,100661.72
2023-05-24T10:03:04.081Z,100655.56
2023-05-24T10:06:19.078Z,100655.88
2023-05-24T10:09:26.558Z,100649.69
2023-05-24T10:12:31.312Z,100642.63
2023-05-24T10:15:34.142Z,100648.59
2023-05-24T10:18:37.036Z,100651.13
2023-05-24T10:21:43.336Z,100656.09
2023-05-24T10:24:48.605Z,100648.53
2023-05-24T10:27:54.746Z,100655.47
2023-05-24T10:31:03.508Z,100650.38
2023-05-24T10:34:08.847Z,100655.19
2023-05-24T10:37:12.333Z,100651.34
2023-05-24T10:40:25.522Z,100647.44
2023-05-24T10:43:28.727Z,100644.66
2023-05-24T10:46:33.236Z,100641.94
2023-05-24T10:49:37.438Z,100642.50
2023-05-24T10:52:40.319Z,100636.28
2023-05-24T10:55:55.224Z,100627.66
2023-05-24T10:58:59.896Z,100613.72
2023-05-24T11:02:35.822Z,100623.66
2023-05-24T11:06:17.164Z,100613.81
2023-05-24T11:09:23.014Z,100616.59
2023-05-24T11:12:34.767Z,100621.59
2023-05-24T11:15:39.940Z,100617.38
2023-05-24T11:18:55.904Z,100614.91
2023-05-24T11:21:59.961Z,100607.53
2023-05-24T11:25:06.305Z,100611.91
2023-05-24T11:28:12.635Z,100612.88
2023-05-24T11:31:16.025Z,100610.41
2023-05-24T11:34:19.933Z,100604.94
2023-05-24T11:37:34.908Z,100604.50
2023-05-24T11:40:47.758Z,100593.84
2023-05-24T11:43:50.709Z,100593.03
2023-05-24T11:47:01.111Z,100591.66
2023-05-24T11:50:04.185Z,100592.84
2023-05-24T11:53:11.123Z,100588.50
2023-05-24T11:56:13.969Z,100591.72
2023-05-24T11:59:28.332Z,100582.94
2023-05-24T12:02:31.350Z,100584.06
2023-05-24T12:05:34.787Z,100577.72
2023-05-24T12:08:37.618Z,100573.31
2023-05-24T12:11:42.357Z,100579.22
2023-05-24T12:14:45.530Z,100570.94
2023-05-24T12:17:52.348Z,100576.31
2023-05-24T12:20:55.400Z,100567.53
2023-05-24T12:23:58.462Z,100568.13
2023-05-24T12:27:08.274Z,100577.50
2023-05-24T12:30:18.956Z,100566.56
2023-05-24T12:33:21.749Z,100563.09
2023-05-24T12:36:24.574Z,100557.00
2023-05-24T12:39:31.942Z,100557.94
2023-05-24T12:42:36.781Z,100551.22
2023-05-24T12:45:39.689Z,100544.91
2023-05-24T12:48:42.497Z,100543.03
2023-05-24T12:51:47.156Z,100554.78
2023-05-24T12:54:51.828Z,100549.19
2023-05-24T12:57:57.576Z,100541.03
2023-05-24T13:01:00.467Z,100548.22
2023-05-24T13:04:04.167Z,100543.13
2023-05-24T13:07:06.951Z,100541.09
2023-05-24T13:10:09.834Z,100538.69
2023-05-24T13:13:12.689Z,100536.47
2023-05-24T13:16:16.638Z,100534.44
2023-05-24T13:19:19.490Z,100525.63
2023-05-24T13:22:22.415Z,100519.00
2023-05-24T13:25:26.790Z,100521.88
2023-05-24T13:28:31.394Z,100514.56
2023-05-24T13:31:34.407Z,100510.81
2023-05-24T13:34:37.359Z,100512.78
2023-05-24T13:37:41.197Z,100508.56
2023-05-24T13:40:46.036Z,100505.25
2023-05-24T13:43:49.155Z,100497.88
2023-05-24T13:46:52.389Z,100501.72
2023-05-24T13:49:56.565Z,100501.84
2023-05-24T13:53:02.345Z,100502.31
2023-05-24T13:56:07.461Z,100505.53
2023-05-24T13:59:12.231Z,100506.41
2023-05-24T14:02:15.227Z,100494.03
2023-05-24T14:05:27.307Z,100501.56
2023-05-24T14:08:30.984Z,100500.19
2023-05-24T14:11:34.256Z,100496.09
2023-05-24T14:14:59.378Z,100506.28
2023-05-24T14:18:26.131Z,100495.78
2023-05-24T14:21:32.593Z,100495.16
2023-05-24T14:24:35.553Z,100494.84
2023-05-24T14:27:38.712Z,100489.00
2023-05-24T14:30:42.252Z,100492.31
2023-05-24T14:33:45.019Z,100484.34
2023-05-24T14:36:48.672Z,100492.81
2023-05-24T14:39:51.543Z,100484.75
2023-05-24T14:42:55.517Z,100484.28
2023-05-24T14:45:58.370Z,100484.00
2023-05-24T14:49:02.716Z,100480.16
2023-05-24T14:52:05.947Z,100485.78
2023-05-24T14:55:09.174Z,100484.69
2023-05-24T14:58:12.602Z,100478.81
2023-05-24T15:01:15.538Z,100480.53
2023-05-24T15:04:19.000Z,100476.16
2023-05-24T15:07:22.981Z,100477.44
2023-05-24T15:10:25.779Z,100478.28
2023-05-24T15:13:28.628Z,100471.88
2023-05-24T15:16:31.709Z,100478.72
2023-05-24T15:19:34.580Z,100482.94
2023-05-24T15:22:37.382Z,100488.25
2023-05-24T15:25:41.123Z,100483.91
2023-05-24T15:28:43.878Z,100489.81
2023-05-24T15:31:47.034Z,100489.94
2023-05-24T15:34:50.869Z,100493.50
2023-05-24T15:37:53.651Z,100488.69
2023-05-24T15:40:56.636Z,100488.38
2023-05-24T15:44:01.000Z,100488.03
2023-05-24T15:47:04.217Z,100486.13
2023-05-24T15:50:10.413Z,100493.63
2023-05-24T15:53:13.329Z,100487.91
2023-05-24T15:56:16.537Z,100487.72
2023-05-24T15:59:21.552Z,100490.44
2023-05-24T16:02:24.850Z,100496.63
2023-05-24T16:05:28.475Z,100491.91
2023-05-24T16:08:31.436Z,100491.53
2023-05-24T16:11:34.481Z,100493.19
2023-05-24T16:14:37.280Z,100490.38
2023-05-24T16:17:40.074Z,100482.06
2023-05-24T16:20:43.243Z,100496.75
2023-05-24T16:23:49.421Z,100492.16
2023-05-24T16:26:57.848Z,100496.47
2023-05-24T16:30:00.590Z,100494.56
2023-05-24T16:33:03.591Z,100505.09
2023-05-24T16:36:06.735Z,100499.47
2023-05-24T16:39:12.039Z,100505.00
2023-05-24T16:42:14.937Z,100512.00
2023-05-24T16:45:17.756Z,100518.34
2023-05-24T16:48:21.868Z,100519.13
2023-05-24T16:51:24.895Z,100518.19
2023-05-24T16:54:27.650Z,100522.56
2023-05-24T16:57:30.447Z,100529.56
2023-05-24T17:00:33.234Z,100534.72
2023-05-24T17:03:36.334Z,100543.16
2023-05-24T17:06:39.209Z,100541.47
2023-05-24T17:09:42.000Z,100550.13
2023-05-24T17:12:44.789Z,100551.34
2023-05-24T17:15:47.646Z,100552.94
2023-05-24T17:18:51.122Z,100556.75
2023-05-24T17:21:53.999Z,100553.88
2023-05-24T17:24:56.759Z,100559.00
2023-05-24T17:27:59.519Z,100556.59
2023-05-24T17:31:02.905Z,100568.00
2023-05-24T17:34:05.750Z,100572.88
2023-05-24T17:37:08.557Z,100574.34
2023-05-24T17:40:11.645Z,100571.91
2023-05-24T17:43:14.450Z,100572.81
2023-05-24T17:46:17.704Z,100581.94
2023-05-24T17:49:20.501Z,100582.84
2023-05-24T17:52:23.236Z,100591.47
2023-05-24T17:55:27.094Z,100591.88
2023-05-24T17:58:31.064Z,100601.50
2023-05-24T18:01:33.999Z,100611.41
2023-05-24T18:04:36.791Z,100601.34
2023-05-24T18:07:39.621Z,100610.38
2023-05-24T18:10:42.580Z,100611.13
2023-05-24T18:13:45.348Z,100628.50
2023-05-24T18:16:48.142Z,100634.59
2023-05-24T18:19:51.416Z,100636.59
2023-05-24T18:22:54.222Z,100637.78
2023-05-24T18:26:00.440Z,100645.41
2023-05-24T18:29:05.839Z,100642.53
2023-05-24T18:32:08.656Z,100642.81
2023-05-24T18:35:12.604Z,100638.53
2023-05-24T18:38:15.469Z,100656.94
2023-05-24T18:41:18.567Z,100655.88
2023-05-24T18:44:21.618Z,100663.16
2023-05-24T18:47:24.415Z,100667.78
2023-05-24T18:50:27.236Z,100666.72
2023-05-24T18:53:30.018Z,100668.38
2023-05-24T18:56:32.883Z,100665.16
2023-05-24T18:59:36.688Z,100660.00
2023-05-24T19:02:39.768Z,100664.06
2023-05-24T19:05:44.158Z,100671.34
2023-05-24T19:08:47.481Z,100681.03
2023-05-24T19:11:50.279Z,100682.91
2023-05-24T19:14:53.081Z,100686.38
2023-05-24T19:17:58.083Z,100690.94
2023-05-24T19:21:01.018Z,100689.56
2023-05-24T19:24:03.941Z,100700.00
2023-05-24T19:27:07.252Z,100704.53
2023-05-24T19:30:10.446Z,100704.22
2023-05-24T19:33:13.324Z,100706.88
2023-05-24T19:36:17.029Z,100711.72
2023-05-24T19:39:19.888Z,100712.22
2023-05-24T19:42:22.689Z,100711.16
2023-05-24T19:45:25.777Z,100712.75
2023-05-24T19:48:28.613Z,100708.97
2023-05-24T19:51:31.501Z,100718.34
2023-05-24T19:54:35.810Z,100727.19
2023-05-24T19:57:38.607Z,100733.56
2023-05-24T20:00:41.629Z,100725.69
2023-05-24T20:03:48.593Z,100726.63
2023-05-24T20:06:53.475Z,100730.88
2023-05-24T20:09:56.261Z,100732.44
2023-05-24T20:12:59.140Z,100727.06
2023-05-24T20:16:01.998Z,100735.66
2023-05-24T20:19:04.808Z,100730.00
2023-05-24T20:22:07.578Z,100732.63
2023-05-24T20:25:10.989Z,100736.06
2023-05-24T20:28:28.750Z,100735.19
2023-05-24T20:31:32.720Z,100739.88
2023-05-24T20:34:35.971Z,100742.28
2023-05-24T20:37:38.934Z,100740.41
2023-05-24T20:40:42.088Z,100741.69
2023-05-24T20:43:44.845Z,100743.25
2023-05-24T20:46:47.739Z,100745.66
2023-05-24T20:49:50.976Z,100751.53
2023-05-24T20:52:53.790Z,100748.31
2023-05-24T20:55:57.377Z,100744.75
2023-05-24T20:59:00.365Z,100743.91
2023-05-24T21:02:03.203Z,100739.81
2023-05-24T21:05:06.818Z,100746.69
2023-05-24T21:08:09.759Z,100744.44
2023-05-24T21:11:12.838Z,100743.88
2023-05-24T21:14:15.845Z,100745.13
2023-05-24T21:17:18.915Z,100745.81
2023-05-24T21:20:21.968Z,100741.19
2023-05-24T21:23:25.374Z,100745.97
2023-05-24T21:26:28.183Z,100752.34
2023-05-24T21:29:31.088Z,100744.81
2023-05-24T21:32:33.965Z,100744.00
2023-05-24T21:35:37.439Z,100744.72
2023-05-24T21:38:40.174Z,100750.00
2023-05-24T21:41:43.065Z,100745.56
2023-05-24T21:44:45.989Z,100746.69
2023-05-24T21:47:48.866Z,100744.22
2023-05-24T21:50:51.719Z,100747.38
2023-05-24T21:53:54.534Z,100738.53
2023-05-24T21:56:57.412Z,100748.75
2023-05-24T22:00:00.172Z,100747.94
2023-05-24T22:03:02.977Z,100739.81
2023-05-24T22:06:05.950Z,100741.13
2023-05-24T22:09:13.752Z,100748.84
2023-05-24T22:12:16.603Z,100747.72
2023-05-24T22:15:19.414Z,100750.25
2023-05-24T22:18:22.195Z,100751.38
2023-05-24T22:21:26.380Z,100759.88
2023-05-24T22:24:29.102Z,100759.25
2023-05-24T22:27:31.928Z,100763.47
2023-05-24T22:30:36.050Z,100761.50
2023-05-24T22:33:38.810Z,100764.34
2023-05-24T22:36:41.668Z,100764.69
2023-05-24T22:39:45.613Z,100760.22
2023-05-24T22:42:48.391Z,100760.25
2023-05-24T22:45:51.500Z,100759.00
2023-05-24T22:48:56.822Z,100762.94
2023-05-24T22:52:00.571Z,100767.19
2023-05-24T22:55:03.511Z,100779.50
2023-05-24T22:58:06.348Z,100774.31
2023-05-24T23:01:09.187Z,100772.38
2023-05-24T23:04:21.257Z,100777.50
2023-05-24T23:07:25.252Z,100783.25
2023-05-24T23:10:28.043Z,100785.50
2023-05-24T23:13:36.188Z,100786.22
2023-05-24T23:16:46.147Z,100785.88
2023-05-24T23:19:50.564Z,100790.81
2023-05-24T23:22:53.385Z,100789.34
2023-05-24T23:25:56.440Z,100783.09
2023-05-24T23:28:59.216Z,100793.69
2023-05-24T23:32:02.163Z,100795.72
2023-05-24T23:35:05.274Z,100797.91
2023-05-24T23:38:08.054Z,100808.38
2023-05-24T23:41:10.798Z,100798.00
2023-05-24T23:44:13.665Z,100802.44
2023-05-24T23:47:16.375Z,100789.88
2023-05-24T23:50:22.580Z,100795.72
2023-05-24T23:53:25.504Z,100802.47
2023-05-24T23:56:28.247Z,100800.28
2023-05-24T23:59:31.024Z,100807.84
